Terminal Aerodrome Forecast
Issued by NWS

Home | Current Version | Previous Version | Graphics & Text | Print | Product List | Glossary On
Versions: 1 2 3 4 5 6 7 8 9 10 11 12
000
FTUS45 KGGW 170520
TAFSDY
TAF
KSDY 170520Z 1706/1806 21009KT P6SM SKC
     FM170900 23007KT P6SM FEW200 WS020/29040KT
     FM171800 26014KT P6SM FEW200=

USA.gov is the U.S. government's official web portal to all federal, state and local government web resources and services.